createdAt,value
2022-12-31T00:04:49.179Z,0.60
2022-12-31T00:09:51.196Z,0.90
2022-12-31T00:14:53.434Z,0.70
2022-12-31T00:19:55.308Z,0.65
2022-12-31T00:24:57.337Z,0.40
2022-12-31T00:30:04.255Z,0.60
2022-12-31T00:35:07.404Z,0.50
2022-12-31T00:40:10.196Z,0.50
2022-12-31T00:45:12.089Z,0.40
2022-12-31T00:50:14.162Z,0.40
2022-12-31T00:55:15.930Z,0.43
2022-12-31T01:00:18.047Z,0.43
2022-12-31T01:05:20.029Z,0.43
2022-12-31T01:10:41.759Z,0.30
2022-12-31T01:15:43.598Z,0.30
2022-12-31T01:20:45.450Z,0.22
2022-12-31T01:25:47.396Z,0.30
2022-12-31T01:30:50.572Z,0.40
2022-12-31T01:35:52.386Z,0.75
2022-12-31T01:40:54.243Z,0.30
2022-12-31T01:45:56.061Z,0.25
2022-12-31T01:50:58.071Z,0.90
2022-12-31T01:56:00.159Z,0.65
2022-12-31T02:01:02.718Z,0.28
2022-12-31T02:06:21.634Z,0.35
2022-12-31T02:11:31.429Z,0.28
2022-12-31T02:16:59.536Z,0.40
2022-12-31T02:22:26.262Z,0.30
2022-12-31T02:27:51.423Z,0.40
2022-12-31T02:33:08.503Z,0.47
2022-12-31T02:38:15.713Z,0.30
2022-12-31T02:43:17.701Z,0.70
2022-12-31T02:48:38.340Z,0.43
2022-12-31T02:53:54.131Z,0.43
2022-12-31T02:59:25.132Z,0.55
2022-12-31T03:04:34.158Z,0.50
2022-12-31T03:09:37.157Z,0.50
2022-12-31T03:14:39.130Z,0.50
2022-12-31T03:19:59.725Z,0.65
2022-12-31T03:25:32.344Z,0.88
2022-12-31T03:30:34.694Z,0.90
2022-12-31T03:35:38.200Z,0.57
2022-12-31T03:40:42.626Z,0.50
2022-12-31T03:45:44.590Z,0.70
2022-12-31T03:50:46.576Z,0.47
2022-12-31T03:55:54.574Z,0.50
2022-12-31T04:00:56.513Z,0.55
2022-12-31T04:05:58.577Z,0.40
2022-12-31T04:11:00.350Z,0.43
2022-12-31T04:16:02.216Z,0.30
2022-12-31T04:21:05.273Z,0.40
2022-12-31T04:26:07.043Z,0.60
2022-12-31T04:31:08.891Z,0.57
2022-12-31T04:36:10.864Z,0.65
2022-12-31T04:41:19.134Z,0.60
2022-12-31T04:46:30.684Z,0.38
2022-12-31T04:51:32.677Z,0.95
2022-12-31T04:56:36.620Z,0.93
2022-12-31T05:01:39.578Z,0.43
2022-12-31T05:06:41.686Z,0.70
2022-12-31T05:11:43.506Z,0.30
2022-12-31T05:16:45.362Z,0.75
2022-12-31T05:22:07.275Z,0.50
2022-12-31T05:27:09.222Z,0.38
2022-12-31T05:32:11.142Z,0.68
2022-12-31T05:37:13.103Z,0.57
2022-12-31T05:42:14.928Z,0.40
2022-12-31T05:47:17.435Z,0.75
2022-12-31T05:52:19.446Z,0.43
2022-12-31T05:57:21.322Z,0.98
2022-12-31T06:02:23.741Z,0.52
2022-12-31T06:07:25.531Z,0.65
2022-12-31T06:12:27.421Z,0.47
2022-12-31T06:17:30.120Z,0.63
2022-12-31T06:22:31.881Z,1.02
2022-12-31T06:27:33.711Z,0.80
2022-12-31T06:32:35.540Z,0.80
2022-12-31T06:37:37.790Z,0.60
2022-12-31T06:42:40.238Z,0.80
2022-12-31T06:47:42.203Z,0.40
2022-12-31T06:52:43.986Z,1.10
2022-12-31T06:57:46.016Z,0.60
2022-12-31T07:03:21.639Z,0.57
2022-12-31T07:08:36.810Z,0.73
2022-12-31T07:14:00.154Z,0.47
2022-12-31T07:19:25.077Z,0.35
2022-12-31T07:24:27.316Z,0.70
2022-12-31T07:29:50.448Z,1.02
2022-12-31T07:35:12.505Z,0.77
2022-12-31T07:40:20.572Z,1.08
2022-12-31T07:45:49.345Z,0.80
2022-12-31T07:50:54.788Z,0.80
2022-12-31T07:55:59.841Z,0.80
2022-12-31T08:01:03.194Z,0.80
2022-12-31T08:06:12.709Z,0.98
2022-12-31T08:11:40.391Z,1.17
2022-12-31T08:16:42.695Z,1.00
2022-12-31T08:22:00.568Z,1.30
2022-12-31T08:27:26.158Z,0.93
2022-12-31T08:32:43.693Z,0.60
2022-12-31T08:38:09.775Z,0.60
2022-12-31T08:43:29.719Z,1.20
2022-12-31T08:48:43.429Z,1.23
2022-12-31T08:53:45.667Z,1.10
2022-12-31T08:59:07.941Z,1.00
2022-12-31T09:04:29.620Z,0.88
2022-12-31T09:09:57.324Z,1.45
2022-12-31T09:15:03.961Z,0.65
2022-12-31T09:20:06.615Z,0.90
2022-12-31T09:25:14.813Z,1.00
2022-12-31T09:30:18.767Z,0.85
2022-12-31T09:35:48.284Z,1.13
2022-12-31T09:40:59.077Z,1.00
2022-12-31T09:46:33.368Z,1.00
2022-12-31T09:52:14.284Z,1.23
2022-12-31T09:57:29.412Z,1.60
2022-12-31T10:02:31.257Z,1.30
2022-12-31T10:08:02.286Z,1.42
2022-12-31T10:13:25.835Z,0.95
2022-12-31T10:18:58.178Z,1.38
2022-12-31T10:24:20.071Z,0.90
2022-12-31T10:29:25.513Z,1.20
2022-12-31T10:34:50.396Z,0.90
2022-12-31T10:40:18.020Z,1.52
2022-12-31T10:45:55.751Z,0.98
2022-12-31T10:51:15.286Z,1.25
2022-12-31T10:56:54.741Z,1.17
2022-12-31T11:01:59.798Z,1.20
2022-12-31T11:07:17.007Z,1.48
2022-12-31T11:12:34.091Z,1.10
2022-12-31T11:17:43.695Z,1.92
2022-12-31T11:23:06.760Z,1.15
2022-12-31T11:28:26.933Z,1.55
2022-12-31T11:33:57.511Z,1.60
2022-12-31T11:39:30.719Z,1.27
2022-12-31T11:44:57.453Z,1.00
2022-12-31T11:50:11.334Z,1.23
2022-12-31T11:55:30.075Z,1.00
2022-12-31T12:00:32.880Z,1.20
2022-12-31T12:05:35.425Z,1.40
2022-12-31T12:10:46.497Z,1.67
2022-12-31T12:15:51.974Z,1.20
2022-12-31T12:21:02.323Z,1.50
2022-12-31T12:26:04.313Z,1.20
2022-12-31T12:31:06.133Z,1.48
2022-12-31T12:36:13.703Z,1.25
2022-12-31T12:41:23.466Z,1.25
2022-12-31T12:46:35.203Z,2.13
2022-12-31T12:51:51.224Z,1.45
2022-12-31T12:57:05.441Z,1.67
2022-12-31T13:02:42.664Z,1.88
2022-12-31T13:08:12.798Z,1.30
2022-12-31T13:13:39.366Z,1.48
2022-12-31T13:19:21.874Z,1.38
2022-12-31T13:24:40.332Z,1.60
2022-12-31T13:29:45.909Z,1.30
2022-12-31T13:34:51.795Z,1.70
2022-12-31T13:40:05.172Z,1.85
2022-12-31T13:45:20.920Z,2.60
2022-12-31T13:50:27.433Z,1.80
2022-12-31T13:55:37.009Z,1.70
2022-12-31T14:00:44.612Z,1.58
2022-12-31T14:06:06.354Z,1.30
2022-12-31T14:11:39.658Z,1.80
2022-12-31T14:17:12.562Z,1.25
2022-12-31T14:22:33.978Z,1.75
2022-12-31T14:27:40.523Z,1.60
2022-12-31T14:33:00.643Z,1.17
2022-12-31T14:38:19.677Z,1.48
2022-12-31T14:43:57.028Z,1.50
2022-12-31T14:49:01.921Z,1.27
2022-12-31T14:54:04.023Z,1.38
2022-12-31T14:59:24.228Z,1.20
2022-12-31T15:04:45.791Z,1.52
2022-12-31T15:10:03.262Z,1.00
2022-12-31T15:15:23.353Z,1.50
2022-12-31T15:20:59.229Z,1.48
2022-12-31T15:26:01.883Z,1.60
2022-12-31T15:31:20.797Z,1.50
2022-12-31T15:36:25.425Z,1.20
2022-12-31T15:42:18.795Z,1.27
2022-12-31T15:47:17.670Z,1.10
2022-12-31T15:52:33.289Z,1.33
2022-12-31T15:57:41.475Z,2.15
2022-12-31T16:02:44.219Z,1.58
2022-12-31T16:07:46.608Z,1.70
2022-12-31T16:12:49.423Z,1.60
2022-12-31T16:18:06.334Z,1.70
2022-12-31T16:23:25.565Z,1.48
2022-12-31T16:28:33.168Z,1.48
2022-12-31T16:33:35.016Z,1.50
2022-12-31T16:38:37.637Z,1.50
2022-12-31T16:43:42.185Z,1.45
2022-12-31T16:48:54.892Z,1.50
2022-12-31T16:53:58.571Z,1.27
2022-12-31T16:59:04.657Z,1.83
2022-12-31T17:04:10.390Z,1.45
2022-12-31T17:09:20.625Z,1.80
2022-12-31T17:14:30.450Z,1.60
2022-12-31T17:19:42.424Z,3.00
2022-12-31T17:24:48.538Z,1.70
2022-12-31T17:29:50.934Z,1.63
2022-12-31T17:34:52.836Z,1.40
2022-12-31T17:40:49.850Z,1.80
2022-12-31T17:45:24.192Z,2.08
2022-12-31T17:50:27.697Z,1.48
2022-12-31T17:55:29.748Z,1.60
2022-12-31T18:00:33.235Z,2.58
2022-12-31T18:05:35.207Z,1.88
2022-12-31T18:10:39.071Z,2.15
2022-12-31T18:15:41.109Z,1.77
2022-12-31T18:20:43.042Z,1.90
2022-12-31T18:30:47.114Z,2.10
2022-12-31T18:36:08.417Z,1.60
2022-12-31T18:41:22.930Z,1.95
2022-12-31T18:46:25.426Z,2.53
2022-12-31T18:51:32.191Z,1.70
2022-12-31T18:56:34.323Z,1.95
2022-12-31T19:01:41.097Z,1.50
2022-12-31T19:06:43.882Z,1.52
2022-12-31T19:11:45.812Z,1.60
2022-12-31T19:16:48.920Z,1.85
2022-12-31T19:21:50.910Z,1.88
2022-12-31T19:26:53.892Z,1.45
2022-12-31T19:31:55.695Z,1.75
2022-12-31T19:36:58.105Z,2.22
2022-12-31T19:42:00.121Z,1.77
2022-12-31T19:47:02.383Z,1.90
2022-12-31T19:52:04.379Z,1.90
2022-12-31T19:57:06.227Z,2.00
2022-12-31T20:02:10.249Z,2.00
2022-12-31T20:07:12.281Z,1.85
2022-12-31T20:12:14.135Z,1.88
2022-12-31T20:17:16.366Z,1.70
2022-12-31T20:22:18.471Z,1.70
2022-12-31T20:27:20.324Z,1.75
2022-12-31T20:32:22.263Z,1.67
2022-12-31T20:37:24.201Z,1.70
2022-12-31T20:42:26.013Z,1.38
2022-12-31T20:47:27.964Z,1.98
2022-12-31T20:52:29.779Z,2.10
2022-12-31T20:57:33.981Z,2.42
2022-12-31T21:02:41.973Z,2.13
2022-12-31T21:07:44.758Z,1.73
2022-12-31T21:12:53.151Z,1.75
2022-12-31T21:17:55.566Z,1.60
2022-12-31T21:22:57.556Z,1.77
2022-12-31T21:27:59.398Z,2.63
2022-12-31T21:33:01.528Z,1.95
2022-12-31T21:38:07.793Z,2.75
2022-12-31T21:43:09.762Z,1.80
2022-12-31T21:48:25.077Z,1.95
2022-12-31T21:53:34.248Z,1.73
2022-12-31T21:58:44.047Z,2.10
2022-12-31T22:03:46.152Z,2.30
2022-12-31T22:08:50.727Z,2.10
2022-12-31T22:13:53.811Z,2.00
2022-12-31T22:18:56.205Z,1.75
2022-12-31T22:24:03.019Z,1.92
2022-12-31T22:29:04.895Z,1.15
2022-12-31T22:34:06.954Z,2.05
2022-12-31T22:39:14.307Z,2.20
2022-12-31T22:44:36.193Z,2.03
2022-12-31T22:49:38.140Z,1.73
2022-12-31T22:54:40.111Z,1.90
2022-12-31T22:59:43.504Z,2.40
2022-12-31T23:04:46.092Z,1.88
2022-12-31T23:10:06.710Z,3.13
2022-12-31T23:15:29.008Z,3.72
2022-12-31T23:20:49.607Z,3.53
2022-12-31T23:25:52.504Z,2.53
2022-12-31T23:30:54.480Z,2.40
2022-12-31T23:36:06.534Z,2.03
2022-12-31T23:41:18.165Z,1.70
2022-12-31T23:46:20.277Z,2.20
2022-12-31T23:51:22.451Z,1.73
2022-12-31T23:56:24.463Z,1.75
